sensor_id;sensor_type;location;lat;lon;timestamp;temperature;humidity
37108;DHT22;23019;49.300;6.846;2022-10-04T00:02:47;27.60;99.90
37108;DHT22;23019;49.300;6.846;2022-10-04T00:05:11;27.60;99.90
37108;DHT22;23019;49.300;6.846;2022-10-04T00:07:24;27.50;99.90
37108;DHT22;23019;49.300;6.846;2022-10-04T00:10:06;27.40;99.90
37108;DHT22;23019;49.300;6.846;2022-10-04T00:12:51;27.30;99.90
37108;DHT22;23019;49.300;6.846;2022-10-04T00:15:01;27.30;99.90
37108;DHT22;23019;49.300;6.846;2022-10-04T00:17:17;27.20;99.90
37108;DHT22;23019;49.300;6.846;2022-10-04T00:19:24;27.10;99.90
37108;DHT22;23019;49.300;6.846;2022-10-04T00:24:22;27.00;99.90
37108;DHT22;23019;49.300;6.846;2022-10-04T00:31:33;26.80;99.90
37108;DHT22;23019;49.300;6.846;2022-10-04T00:34:43;26.70;99.90
37108;DHT22;23019;49.300;6.846;2022-10-04T00:36:53;26.60;99.90
37108;DHT22;23019;49.300;6.846;2022-10-04T00:41:06;26.50;99.90
37108;DHT22;23019;49.300;6.846;2022-10-04T00:43:27;26.40;99.90
37108;DHT22;23019;49.300;6.846;2022-10-04T00:48:57;26.20;99.90
37108;DHT22;23019;49.300;6.846;2022-10-04T00:53:52;26.10;99.90
37108;DHT22;23019;49.300;6.846;2022-10-04T00:56:00;26.00;99.90
37108;DHT22;23019;49.300;6.846;2022-10-04T00:58:17;25.90;99.90
37108;DHT22;23019;49.300;6.846;2022-10-04T01:00:31;25.90;99.90
37108;DHT22;23019;49.300;6.846;2022-10-04T01:02:57;25.70;99.90
37108;DHT22;23019;49.300;6.846;2022-10-04T01:05:41;25.60;99.90
37108;DHT22;23019;49.300;6.846;2022-10-04T01:07:56;25.50;99.90
37108;DHT22;23019;49.300;6.846;2022-10-04T01:10:12;25.50;99.90
37108;DHT22;23019;49.300;6.846;2022-10-04T01:17:26;25.20;99.90
37108;DHT22;23019;49.300;6.846;2022-10-04T01:19:46;25.20;99.90
37108;DHT22;23019;49.300;6.846;2022-10-04T01:22:10;25.10;99.90
37108;DHT22;23019;49.300;6.846;2022-10-04T01:24:20;25.00;99.90
37108;DHT22;23019;49.300;6.846;2022-10-04T01:28:50;24.90;99.90
37108;DHT22;23019;49.300;6.846;2022-10-04T01:31:12;24.80;99.90
37108;DHT22;23019;49.300;6.846;2022-10-04T01:33:36;24.70;99.90
37108;DHT22;23019;49.300;6.846;2022-10-04T01:35:48;24.60;99.90
37108;DHT22;23019;49.300;6.846;2022-10-04T01:38:14;24.60;99.90
37108;DHT22;23019;49.300;6.846;2022-10-04T01:40:20;24.50;99.90
37108;DHT22;23019;49.300;6.846;2022-10-04T01:42:44;24.40;99.90
37108;DHT22;23019;49.300;6.846;2022-10-04T01:45:39;24.40;99.90
37108;DHT22;23019;49.300;6.846;2022-10-04T01:48:10;24.30;99.90
37108;DHT22;23019;49.300;6.846;2022-10-04T01:53:20;24.20;99.90
37108;DHT22;23019;49.300;6.846;2022-10-04T01:55:40;24.10;99.90
37108;DHT22;23019;49.300;6.846;2022-10-04T02:00:25;24.00;99.90
37108;DHT22;23019;49.300;6.846;2022-10-04T02:05:38;23.90;99.90
37108;DHT22;23019;49.300;6.846;2022-10-04T02:07:50;23.90;99.90
37108;DHT22;23019;49.300;6.846;2022-10-04T02:10:20;23.80;99.90
37108;DHT22;23019;49.300;6.846;2022-10-04T02:13:03;23.80;99.90
37108;DHT22;23019;49.300;6.846;2022-10-04T02:15:22;23.70;99.90
37108;DHT22;23019;49.300;6.846;2022-10-04T02:17:41;23.70;99.90
37108;DHT22;23019;49.300;6.846;2022-10-04T02:19:58;23.60;99.90
37108;DHT22;23019;49.300;6.846;2022-10-04T02:22:09;23.60;99.90
37108;DHT22;23019;49.300;6.846;2022-10-04T02:24:45;23.50;99.90
37108;DHT22;23019;49.300;6.846;2022-10-04T02:26:53;23.50;99.90
37108;DHT22;23019;49.300;6.846;2022-10-04T02:29:08;23.50;99.90
37108;DHT22;23019;49.300;6.846;2022-10-04T02:31:23;23.40;99.90
37108;DHT22;23019;49.300;6.846;2022-10-04T02:34:30;23.40;99.90
37108;DHT22;23019;49.300;6.846;2022-10-04T02:36:40;23.30;99.90
37108;DHT22;23019;49.300;6.846;2022-10-04T02:39:14;23.30;99.90
37108;DHT22;23019;49.300;6.846;2022-10-04T02:41:39;23.30;99.90
37108;DHT22;23019;49.300;6.846;2022-10-04T02:43:55;23.30;99.90
37108;DHT22;23019;49.300;6.846;2022-10-04T02:46:14;23.30;99.90
37108;DHT22;23019;49.300;6.846;2022-10-04T02:51:41;23.20;99.90
37108;DHT22;23019;49.300;6.846;2022-10-04T02:54:09;23.10;99.90
37108;DHT22;23019;49.300;6.846;2022-10-04T02:56:42;23.10;99.90
37108;DHT22;23019;49.300;6.846;2022-10-04T02:58:55;23.00;99.90
37108;DHT22;23019;49.300;6.846;2022-10-04T03:04:17;23.00;99.90
37108;DHT22;23019;49.300;6.846;2022-10-04T03:06:31;23.00;99.90
37108;DHT22;23019;49.300;6.846;2022-10-04T03:11:40;22.90;99.90
37108;DHT22;23019;49.300;6.846;2022-10-04T03:14:07;22.90;99.90
37108;DHT22;23019;49.300;6.846;2022-10-04T03:16:11;22.90;99.90
37108;DHT22;23019;49.300;6.846;2022-10-04T03:18:31;22.80;99.90
37108;DHT22;23019;49.300;6.846;2022-10-04T03:20:49;22.80;99.90
37108;DHT22;23019;49.300;6.846;2022-10-04T03:23:03;22.80;99.90
37108;DHT22;23019;49.300;6.846;2022-10-04T03:25:15;22.70;99.90
37108;DHT22;23019;49.300;6.846;2022-10-04T03:27:35;22.70;99.90
37108;DHT22;23019;49.300;6.846;2022-10-04T03:32:03;22.70;99.90
37108;DHT22;23019;49.300;6.846;2022-10-04T03:34:40;22.70;99.90
37108;DHT22;23019;49.300;6.846;2022-10-04T03:36:55;22.70;99.90
37108;DHT22;23019;49.300;6.846;2022-10-04T03:39:05;22.60;99.90
37108;DHT22;23019;49.300;6.846;2022-10-04T03:41:18;22.60;99.90
37108;DHT22;23019;49.300;6.846;2022-10-04T03:43:28;22.60;99.90
37108;DHT22;23019;49.300;6.846;2022-10-04T03:45:51;22.60;99.90
37108;DHT22;23019;49.300;6.846;2022-10-04T03:48:05;22.60;99.90
37108;DHT22;23019;49.300;6.846;2022-10-04T03:50:34;22.60;99.90
37108;DHT22;23019;49.300;6.846;2022-10-04T03:52:50;22.60;99.90
37108;DHT22;23019;49.300;6.846;2022-10-04T03:55:18;22.60;99.90
37108;DHT22;23019;49.300;6.846;2022-10-04T03:57:31;22.50;99.90
37108;DHT22;23019;49.300;6.846;2022-10-04T03:59:42;22.50;99.90
37108;DHT22;23019;49.300;6.846;2022-10-04T04:02:06;22.50;99.90
37108;DHT22;23019;49.300;6.846;2022-10-04T04:07:47;22.40;99.90
37108;DHT22;23019;49.300;6.846;2022-10-04T04:21:51;22.40;99.90
37108;DHT22;23019;49.300;6.846;2022-10-04T09:22:13;21.40;99.90
37108;DHT22;23019;49.300;6.846;2022-10-04T09:24:48;21.40;99.90
37108;DHT22;23019;49.300;6.846;2022-10-04T10:09:46;56.40;99.90
37108;DHT22;23019;49.300;6.846;2022-10-04T10:31:16;53.90;99.90
37108;DHT22;23019;49.300;6.846;2022-10-04T10:44:52;53.50;99.90
37108;DHT22;23019;49.300;6.846;2022-10-04T10:50:46;53.40;99.90
37108;DHT22;23019;49.300;6.846;2022-10-04T10:53:15;53.20;99.90
37108;DHT22;23019;49.300;6.846;2022-10-04T10:55:55;53.10;99.90
37108;DHT22;23019;49.300;6.846;2022-10-04T11:14:07;52.00;99.90
37108;DHT22;23019;49.300;6.846;2022-10-04T15:18:51;36.10;99.90
37108;DHT22;23019;49.300;6.846;2022-10-04T15:23:52;35.80;99.90
37108;DHT22;23019;49.300;6.846;2022-10-04T15:31:12;35.60;99.90
37108;DHT22;23019;49.300;6.846;2022-10-04T15:33:33;35.40;99.90
37108;DHT22;23019;49.300;6.846;2022-10-04T15:42:28;35.10;99.90
37108;DHT22;23019;49.300;6.846;2022-10-04T15:46:48;34.90;99.90
37108;DHT22;23019;49.300;6.846;2022-10-04T15:49:18;34.90;99.90
37108;DHT22;23019;49.300;6.846;2022-10-04T15:58:26;34.50;99.90
37108;DHT22;23019;49.300;6.846;2022-10-04T16:09:59;34.10;99.90
37108;DHT22;23019;49.300;6.846;2022-10-04T16:16:30;33.90;99.90
37108;DHT22;23019;49.300;6.846;2022-10-04T16:23:30;33.70;99.90
37108;DHT22;23019;49.300;6.846;2022-10-04T16:25:36;33.50;99.90
37108;DHT22;23019;49.300;6.846;2022-10-04T16:27:45;33.50;99.90
37108;DHT22;23019;49.300;6.846;2022-10-04T16:34:59;33.30;99.90
37108;DHT22;23019;49.300;6.846;2022-10-04T16:39:09;33.10;99.90
37108;DHT22;23019;49.300;6.846;2022-10-04T16:41:40;33.10;99.90
37108;DHT22;23019;49.300;6.846;2022-10-04T16:44:02;33.00;99.90
37108;DHT22;23019;49.300;6.846;2022-10-04T16:46:29;32.90;99.90
37108;DHT22;23019;49.300;6.846;2022-10-04T16:48:59;32.80;99.90
37108;DHT22;23019;49.300;6.846;2022-10-04T16:51:05;32.80;99.90
37108;DHT22;23019;49.300;6.846;2022-10-04T16:55:50;32.60;99.90
37108;DHT22;23019;49.300;6.846;2022-10-04T17:00:34;32.40;99.90
37108;DHT22;23019;49.300;6.846;2022-10-04T17:03:49;32.40;99.90
37108;DHT22;23019;49.300;6.846;2022-10-04T17:05:47;32.30;99.90
37108;DHT22;23019;49.300;6.846;2022-10-04T17:17:29;31.90;99.90
37108;DHT22;23019;49.300;6.846;2022-10-04T17:19:42;31.80;99.90
37108;DHT22;23019;49.300;6.846;2022-10-04T17:33:24;31.70;99.90
37108;DHT22;23019;49.300;6.846;2022-10-04T17:38:11;31.50;99.90
37108;DHT22;23019;49.300;6.846;2022-10-04T17:42:35;31.40;99.90
37108;DHT22;23019;49.300;6.846;2022-10-04T17:47:12;31.30;99.90
37108;DHT22;23019;49.300;6.846;2022-10-04T17:52:02;31.10;99.90
37108;DHT22;23019;49.300;6.846;2022-10-04T17:54:27;31.10;99.90
37108;DHT22;23019;49.300;6.846;2022-10-04T17:56:53;31.00;99.90
37108;DHT22;23019;49.300;6.846;2022-10-04T17:58:58;30.90;99.90
37108;DHT22;23019;49.300;6.846;2022-10-04T18:03:19;30.80;99.90
37108;DHT22;23019;49.300;6.846;2022-10-04T18:07:43;30.70;99.90
37108;DHT22;23019;49.300;6.846;2022-10-04T18:09:49;30.60;99.90
37108;DHT22;23019;49.300;6.846;2022-10-04T18:12:14;30.60;99.90
37108;DHT22;23019;49.300;6.846;2022-10-04T18:16:56;30.40;99.90
37108;DHT22;23019;49.300;6.846;2022-10-04T18:21:47;30.30;99.90
37108;DHT22;23019;49.300;6.846;2022-10-04T18:23:54;30.30;99.90
37108;DHT22;23019;49.300;6.846;2022-10-04T18:26:08;30.20;99.90
37108;DHT22;23019;49.300;6.846;2022-10-04T18:28:13;30.10;99.90
37108;DHT22;23019;49.300;6.846;2022-10-04T18:30:20;30.10;99.90
37108;DHT22;23019;49.300;6.846;2022-10-04T18:34:28;29.90;99.90
37108;DHT22;23019;49.300;6.846;2022-10-04T18:36:50;29.80;99.90
37108;DHT22;23019;49.300;6.846;2022-10-04T18:41:21;29.70;99.90
37108;DHT22;23019;49.300;6.846;2022-10-04T18:43:34;29.70;99.90
37108;DHT22;23019;49.300;6.846;2022-10-04T18:45:35;29.60;99.90
37108;DHT22;23019;49.300;6.846;2022-10-04T18:47:38;29.50;99.90
37108;DHT22;23019;49.300;6.846;2022-10-04T18:49:52;29.50;99.90
37108;DHT22;23019;49.300;6.846;2022-10-04T18:51:56;29.40;99.90
37108;DHT22;23019;49.300;6.846;2022-10-04T18:56:23;29.20;99.90
37108;DHT22;23019;49.300;6.846;2022-10-04T18:58:36;29.20;99.90
37108;DHT22;23019;49.300;6.846;2022-10-04T19:04:06;29.00;99.90
37108;DHT22;23019;49.300;6.846;2022-10-04T19:06:21;28.90;99.90
37108;DHT22;23019;49.300;6.846;2022-10-04T19:20:36;28.50;99.90
37108;DHT22;23019;49.300;6.846;2022-10-04T19:25:16;28.40;99.90
37108;DHT22;23019;49.300;6.846;2022-10-04T19:27:31;28.30;99.90
37108;DHT22;23019;49.300;6.846;2022-10-04T19:32:03;28.20;99.90
37108;DHT22;23019;49.300;6.846;2022-10-04T19:34:13;28.10;99.90
37108;DHT22;23019;49.300;6.846;2022-10-04T19:36:37;28.10;99.90
37108;DHT22;23019;49.300;6.846;2022-10-04T19:38:58;28.10;99.90
37108;DHT22;23019;49.300;6.846;2022-10-04T19:43:13;28.10;99.90
37108;DHT22;23019;49.300;6.846;2022-10-04T19:54:26;28.20;99.90
37108;DHT22;23019;49.300;6.846;2022-10-04T19:56:33;28.20;99.90
37108;DHT22;23019;49.300;6.846;2022-10-04T19:58:41;28.20;99.90
37108;DHT22;23019;49.300;6.846;2022-10-04T20:00:47;28.20;99.90
37108;DHT22;23019;49.300;6.846;2022-10-04T20:02:48;28.20;99.90
37108;DHT22;23019;49.300;6.846;2022-10-04T20:04:49;28.20;99.90
37108;DHT22;23019;49.300;6.846;2022-10-04T20:06:55;28.10;99.90
37108;DHT22;23019;49.300;6.846;2022-10-04T20:08:57;28.10;99.90
37108;DHT22;23019;49.300;6.846;2022-10-04T20:11:47;28.10;99.90
37108;DHT22;23019;49.300;6.846;2022-10-04T20:18:57;28.00;99.90
37108;DHT22;23019;49.300;6.846;2022-10-04T20:22:59;27.90;99.90
37108;DHT22;23019;49.300;6.846;2022-10-04T20:25:00;27.80;99.90
37108;DHT22;23019;49.300;6.846;2022-10-04T20:27:04;27.80;99.90
37108;DHT22;23019;49.300;6.846;2022-10-04T20:29:08;27.80;99.90
37108;DHT22;23019;49.300;6.846;2022-10-04T20:36:02;27.60;99.90
37108;DHT22;23019;49.300;6.846;2022-10-04T20:38:14;27.60;99.90
37108;DHT22;23019;49.300;6.846;2022-10-04T20:42:33;27.40;99.90
37108;DHT22;23019;49.300;6.846;2022-10-04T20:44:48;27.40;99.90
37108;DHT22;23019;49.300;6.846;2022-10-04T20:46:53;27.30;99.90
37108;DHT22;23019;49.300;6.846;2022-10-04T20:48:54;27.30;99.90
37108;DHT22;23019;49.300;6.846;2022-10-04T20:50:55;27.20;99.90
37108;DHT22;23019;49.300;6.846;2022-10-04T20:53:03;27.20;99.90
37108;DHT22;23019;49.300;6.846;2022-10-04T20:55:17;27.10;99.90
37108;DHT22;23019;49.300;6.846;2022-10-04T20:57:19;27.10;99.90
37108;DHT22;23019;49.300;6.846;2022-10-04T20:59:23;27.00;99.90
37108;DHT22;23019;49.300;6.846;2022-10-04T21:01:32;27.00;99.90
37108;DHT22;23019;49.300;6.846;2022-10-04T21:03:35;26.90;99.90
37108;DHT22;23019;49.300;6.846;2022-10-04T21:05:36;26.80;99.90
37108;DHT22;23019;49.300;6.846;2022-10-04T21:07:37;26.80;99.90
37108;DHT22;23019;49.300;6.846;2022-10-04T21:09:39;26.80;99.90
37108;DHT22;23019;49.300;6.846;2022-10-04T21:11:45;26.70;99.90
37108;DHT22;23019;49.300;6.846;2022-10-04T21:13:50;26.70;99.90
37108;DHT22;23019;49.300;6.846;2022-10-04T21:15:54;26.60;99.90
37108;DHT22;23019;49.300;6.846;2022-10-04T21:18:07;26.50;99.90
37108;DHT22;23019;49.300;6.846;2022-10-04T21:22:41;26.40;99.90
37108;DHT22;23019;49.300;6.846;2022-10-04T21:26:55;26.30;99.90
37108;DHT22;23019;49.300;6.846;2022-10-04T21:28:57;26.20;99.90
37108;DHT22;23019;49.300;6.846;2022-10-04T21:30:59;26.20;99.90
37108;DHT22;23019;49.300;6.846;2022-10-04T21:33:00;26.10;99.90
37108;DHT22;23019;49.300;6.846;2022-10-04T21:35:01;26.00;99.90
37108;DHT22;23019;49.300;6.846;2022-10-04T21:37:03;26.00;99.90
37108;DHT22;23019;49.300;6.846;2022-10-04T21:39:03;25.90;99.90
37108;DHT22;23019;49.300;6.846;2022-10-04T21:41:04;25.90;99.90
37108;DHT22;23019;49.300;6.846;2022-10-04T21:43:05;25.80;99.90
37108;DHT22;23019;49.300;6.846;2022-10-04T21:45:06;25.70;99.90
37108;DHT22;23019;49.300;6.846;2022-10-04T21:47:06;25.60;99.90
37108;DHT22;23019;49.300;6.846;2022-10-04T21:49:07;25.60;99.90
37108;DHT22;23019;49.300;6.846;2022-10-04T21:51:08;25.50;99.90
37108;DHT22;23019;49.300;6.846;2022-10-04T21:53:09;25.40;99.90
37108;DHT22;23019;49.300;6.846;2022-10-04T21:55:10;25.30;99.90
37108;DHT22;23019;49.300;6.846;2022-10-04T21:57:11;25.30;99.90
37108;DHT22;23019;49.300;6.846;2022-10-04T21:59:11;25.20;99.90
37108;DHT22;23019;49.300;6.846;2022-10-04T22:01:12;25.10;99.90
37108;DHT22;23019;49.300;6.846;2022-10-04T22:03:13;25.10;99.90
37108;DHT22;23019;49.300;6.846;2022-10-04T22:05:13;25.00;99.90
37108;DHT22;23019;49.300;6.846;2022-10-04T22:07:14;24.90;99.90
37108;DHT22;23019;49.300;6.846;2022-10-04T22:09:15;24.80;99.90
37108;DHT22;23019;49.300;6.846;2022-10-04T22:11:16;24.80;99.90
37108;DHT22;23019;49.300;6.846;2022-10-04T22:13:17;24.70;99.90
37108;DHT22;23019;49.300;6.846;2022-10-04T22:15:17;24.60;99.90
37108;DHT22;23019;49.300;6.846;2022-10-04T22:17:18;24.60;99.90
37108;DHT22;23019;49.300;6.846;2022-10-04T22:19:19;24.50;99.90
37108;DHT22;23019;49.300;6.846;2022-10-04T22:21:19;24.50;99.90
37108;DHT22;23019;49.300;6.846;2022-10-04T22:23:22;24.40;99.90
37108;DHT22;23019;49.300;6.846;2022-10-04T22:25:25;24.30;99.90
37108;DHT22;23019;49.300;6.846;2022-10-04T22:27:29;24.30;99.90
37108;DHT22;23019;49.300;6.846;2022-10-04T22:29:30;24.20;99.90
37108;DHT22;23019;49.300;6.846;2022-10-04T22:31:34;24.20;99.90
37108;DHT22;23019;49.300;6.846;2022-10-04T22:33:36;24.10;99.90
37108;DHT22;23019;49.300;6.846;2022-10-04T22:35:37;24.00;99.90
37108;DHT22;23019;49.300;6.846;2022-10-04T22:37:38;24.00;99.90
37108;DHT22;23019;49.300;6.846;2022-10-04T22:39:39;23.90;99.90
37108;DHT22;23019;49.300;6.846;2022-10-04T22:41:44;23.90;99.90
37108;DHT22;23019;49.300;6.846;2022-10-04T22:43:48;23.90;99.90
37108;DHT22;23019;49.300;6.846;2022-10-04T22:45:49;23.80;99.90
37108;DHT22;23019;49.300;6.846;2022-10-04T22:47:50;23.70;99.90
37108;DHT22;23019;49.300;6.846;2022-10-04T22:49:52;23.70;99.90
37108;DHT22;23019;49.300;6.846;2022-10-04T22:51:55;23.60;99.90
37108;DHT22;23019;49.300;6.846;2022-10-04T22:53:56;23.60;99.90
37108;DHT22;23019;49.300;6.846;2022-10-04T22:55:56;23.50;99.90
37108;DHT22;23019;49.300;6.846;2022-10-04T22:57:57;23.50;99.90
37108;DHT22;23019;49.300;6.846;2022-10-04T23:00:01;23.50;99.90
37108;DHT22;23019;49.300;6.846;2022-10-04T23:02:08;23.50;99.90
37108;DHT22;23019;49.300;6.846;2022-10-04T23:04:21;23.40;99.90
37108;DHT22;23019;49.300;6.846;2022-10-04T23:06:22;23.40;99.90
37108;DHT22;23019;49.300;6.846;2022-10-04T23:08:23;23.30;99.90
37108;DHT22;23019;49.300;6.846;2022-10-04T23:10:24;23.30;99.90
37108;DHT22;23019;49.300;6.846;2022-10-04T23:12:24;23.30;99.90
37108;DHT22;23019;49.300;6.846;2022-10-04T23:14:26;23.20;99.90
37108;DHT22;23019;49.300;6.846;2022-10-04T23:16:26;23.20;99.90
37108;DHT22;23019;49.300;6.846;2022-10-04T23:18:27;23.20;99.90
37108;DHT22;23019;49.300;6.846;2022-10-04T23:20:29;23.10;99.90
37108;DHT22;23019;49.300;6.846;2022-10-04T23:22:30;23.10;99.90
37108;DHT22;23019;49.300;6.846;2022-10-04T23:24:31;23.10;99.90
37108;DHT22;23019;49.300;6.846;2022-10-04T23:26:36;23.00;99.90
37108;DHT22;23019;49.300;6.846;2022-10-04T23:28:38;23.00;99.90
37108;DHT22;23019;49.300;6.846;2022-10-04T23:30:38;23.00;99.90
37108;DHT22;23019;49.300;6.846;2022-10-04T23:32:39;22.90;99.90
37108;DHT22;23019;49.300;6.846;2022-10-04T23:34:45;22.90;99.90
37108;DHT22;23019;49.300;6.846;2022-10-04T23:36:50;22.90;99.90
37108;DHT22;23019;49.300;6.846;2022-10-04T23:38:55;22.90;99.90
37108;DHT22;23019;49.300;6.846;2022-10-04T23:40:58;22.80;99.90
37108;DHT22;23019;49.300;6.846;2022-10-04T23:43:01;22.90;99.90
37108;DHT22;23019;49.300;6.846;2022-10-04T23:45:13;22.80;99.90
37108;DHT22;23019;49.300;6.846;2022-10-04T23:47:17;22.80;99.90
37108;DHT22;23019;49.300;6.846;2022-10-04T23:49:19;22.70;99.90
37108;DHT22;23019;49.300;6.846;2022-10-04T23:51:21;22.70;99.90
37108;DHT22;23019;49.300;6.846;2022-10-04T23:53:29;22.70;99.90
37108;DHT22;23019;49.300;6.846;2022-10-04T23:55:36;22.70;99.90
37108;DHT22;23019;49.300;6.846;2022-10-04T23:57:36;22.70;99.90
37108;DHT22;23019;49.300;6.846;2022-10-04T23:59:37;22.60;99.90
